Time;durP1;ratioP1;P1;durP2;ratioP2;P2;SDS_P1;SDS_P2;PMS_P1;PMS_P2;Temp;Humidity;BMP_temperature;BMP_pressure;BME280_temperature;BME280_humidity;BME280_pressure;Samples;Min_cycle;Max_cycle;Signal;HPM_P1;HPM_P2
2021/03/17 00:00:31;;;;;;;43.23;6.17;;;8.00;99.90;;;;;;4103866;28;20209;-91
2021/03/17 00:02:50;;;;;;;34.87;4.23;;;7.90;99.90;;;;;;4103975;28;20205;-92
2021/03/17 00:05:10;;;;;;;47.87;6.53;;;7.90;99.90;;;;;;4103511;28;20262;-91
2021/03/17 00:07:29;;;;;;;48.77;5.67;;;7.70;99.90;;;;;;4103769;28;20174;-92
2021/03/17 00:09:48;;;;;;;47.20;6.83;;;7.80;99.90;;;;;;4103790;28;20210;-91
2021/03/17 00:12:07;;;;;;;58.57;7.07;;;7.80;99.90;;;;;;4103350;28;20233;-92
2021/03/17 00:14:26;;;;;;;50.87;6.67;;;8.00;99.90;;;;;;4103834;28;20222;-91
2021/03/17 00:16:46;;;;;;;61.67;7.60;;;7.80;99.90;;;;;;4103372;28;20170;-91
2021/03/17 00:19:06;;;;;;;54.57;7.50;;;8.00;99.90;;;;;;4103345;28;20725;-91
2021/03/17 00:21:25;;;;;;;56.17;7.67;;;8.00;99.90;;;;;;4103428;28;20169;-92
2021/03/17 00:23:44;;;;;;;48.97;7.33;;;8.00;99.90;;;;;;4103667;28;20182;-91
2021/03/17 00:26:03;;;;;;;54.00;7.80;;;8.20;99.90;;;;;;4103381;28;20186;-91
2021/03/17 00:28:23;;;;;;;52.13;7.63;;;8.00;99.90;;;;;;4103504;28;20679;-90
2021/03/17 00:30:42;;;;;;;56.27;7.87;;;8.00;99.90;;;;;;4103114;28;20198;-90
2021/03/17 00:33:03;;;;;;;66.50;9.77;;;8.00;99.90;;;;;;4103434;28;20189;-90
2021/03/17 00:35:23;;;;;;;39.47;9.87;;;7.80;99.90;;;;;;4103439;28;20202;-91
2021/03/17 00:37:42;;;;;;;37.57;10.30;;;7.50;99.90;;;;;;4103177;28;20174;-90
2021/03/17 00:40:02;;;;;;;16.87;9.80;;;7.20;99.90;;;;;;4103149;28;20257;-91
2021/03/17 00:42:21;;;;;;;16.53;10.20;;;7.00;99.90;;;;;;4103628;28;20281;-90
2021/03/17 00:44:42;;;;;;;22.13;13.47;;;6.70;99.90;;;;;;4103581;28;20185;-93
2021/03/17 00:47:01;;;;;;;20.43;14.13;;;6.60;99.90;;;;;;4103558;28;20289;-90
2021/03/17 00:49:05;;;;;;;23.23;15.77;;;6.40;99.90;;;;;;4100124;28;20201;-91
2021/03/17 00:51:08;;;;;;;30.20;18.90;;;6.40;99.90;;;;;;4100430;29;20199;-91
2021/03/17 00:53:27;;;;;;;40.70;23.90;;;6.30;99.90;;;;;;4103254;28;20186;-92
2021/03/17 00:55:32;;;;;;;38.27;22.93;;;6.30;99.90;;;;;;4100513;29;20183;-91
2021/03/17 00:57:57;;;;;;;49.47;28.93;;;6.20;99.90;;;;;;4100610;29;20170;-90
2021/03/17 00:59:58;;;;;;;47.90;28.53;;;6.10;99.90;;;;;;4084524;29;20192;-90
2021/03/17 01:01:58;;;;;;;42.27;26.40;;;6.00;99.90;;;;;;4100243;29;20211;-91
2021/03/17 01:03:59;;;;;;;49.83;28.30;;;5.90;99.90;;;;;;4085582;29;20202;-91
2021/03/17 01:06:00;;;;;;;49.57;27.13;;;5.90;99.90;;;;;;4084959;29;20172;-91
2021/03/17 01:08:01;;;;;;;39.63;22.57;;;5.90;99.90;;;;;;4084593;29;20174;-91
2021/03/17 01:10:17;;;;;;;40.87;24.67;;;5.80;99.90;;;;;;4084560;29;20197;-90
2021/03/17 01:12:17;;;;;;;44.73;25.60;;;5.90;99.90;;;;;;4100316;29;20229;-91
2021/03/17 01:14:18;;;;;;;44.20;24.13;;;5.90;99.90;;;;;;4084459;29;20215;-92
2021/03/17 01:16:19;;;;;;;45.97;26.10;;;6.00;99.90;;;;;;4084470;29;20243;-92
2021/03/17 01:18:19;;;;;;;48.83;26.30;;;6.00;99.90;;;;;;4084515;29;20559;-93
2021/03/17 01:20:24;;;;;;;46.97;26.97;;;6.00;99.90;;;;;;4084404;29;20205;-90
2021/03/17 01:22:24;;;;;;;47.70;26.00;;;6.00;99.90;;;;;;4084390;29;20223;-91
2021/03/17 01:24:25;;;;;;;48.43;27.60;;;6.00;99.90;;;;;;4100159;29;20618;-91
2021/03/17 01:26:26;;;;;;;44.87;24.37;;;6.00;99.90;;;;;;4084428;29;20186;-92
2021/03/17 01:28:26;;;;;;;52.07;28.73;;;6.00;99.90;;;;;;4099995;29;20623;-92
2021/03/17 01:30:30;;;;;;;57.23;31.07;;;6.00;99.90;;;;;;4084218;29;20235;-90
2021/03/17 01:32:32;;;;;;;55.83;30.60;;;5.90;99.90;;;;;;4084574;29;20180;-91
2021/03/17 01:34:32;;;;;;;55.07;29.70;;;6.00;99.90;;;;;;4084377;29;20181;-92
2021/03/17 01:36:33;;;;;;;61.13;31.60;;;6.00;99.90;;;;;;4100240;29;20171;-91
2021/03/17 01:38:34;;;;;;;62.10;32.10;;;6.00;99.90;;;;;;4100169;29;20179;-90
2021/03/17 01:40:38;;;;;;;64.17;32.90;;;6.20;99.90;;;;;;4084297;29;20250;-92
2021/03/17 01:42:39;;;;;;;59.93;32.40;;;6.20;99.90;;;;;;4100010;29;20215;-91
2021/03/17 01:44:40;;;;;;;57.83;30.33;;;6.30;99.90;;;;;;4100219;29;20226;-90
2021/03/17 01:46:40;;;;;;;60.83;31.40;;;6.30;99.90;;;;;;4100347;29;20702;-91
2021/03/17 01:48:41;;;;;;;61.03;30.50;;;6.40;99.90;;;;;;4100210;29;20179;-90
2021/03/17 01:50:45;;;;;;;61.40;30.37;;;6.50;99.90;;;;;;4100055;29;20282;-92
2021/03/17 01:52:46;;;;;;;63.23;32.40;;;6.60;99.90;;;;;;4100163;29;20175;-92
2021/03/17 01:54:47;;;;;;;63.77;30.97;;;6.60;99.90;;;;;;4100302;29;20262;-89
2021/03/17 01:56:48;;;;;;;66.33;33.47;;;6.60;99.90;;;;;;4084254;29;20264;-90
2021/03/17 01:58:48;;;;;;;69.73;34.70;;;6.50;99.90;;;;;;4084233;29;20231;-91
2021/03/17 02:00:50;;;;;;;76.13;34.33;;;6.50;99.90;;;;;;4084297;29;20191;-92
2021/03/17 02:02:53;;;;;;;68.50;34.23;;;6.50;99.90;;;;;;4087200;29;20231;-93
2021/03/17 02:04:53;;;;;;;71.87;35.47;;;6.40;99.90;;;;;;4103187;29;20171;-91
2021/03/17 02:06:54;;;;;;;69.70;34.80;;;6.40;99.90;;;;;;4086996;29;20751;-92
2021/03/17 02:08:55;;;;;;;69.23;35.07;;;6.40;99.90;;;;;;4102848;29;20183;-93
2021/03/17 02:10:56;;;;;;;69.47;34.43;;;6.30;99.90;;;;;;4087010;29;20222;-91
2021/03/17 02:13:31;;;;;;;61.63;31.30;;;6.30;99.90;;;;;;4086691;29;20227;-91
2021/03/17 02:15:50;;;;;;;66.40;35.77;;;6.30;99.90;;;;;;4087025;29;20229;-90
2021/03/17 02:17:57;;;;;;;70.33;33.87;;;6.20;99.90;;;;;;4086775;29;20187;-92
2021/03/17 02:20:11;;;;;;;64.80;33.67;;;6.20;99.90;;;;;;4102591;29;20199;-91
2021/03/17 02:22:38;;;;;;;63.30;32.83;;;6.20;99.90;;;;;;4102241;29;20218;-91
2021/03/17 02:25:19;;;;;;;66.00;33.13;;;6.20;99.90;;;;;;4086725;29;20190;-93
2021/03/17 02:27:43;;;;;;;45.73;24.27;;;6.30;99.90;;;;;;4039422;29;20186;-91
2021/03/17 02:30:02;;;;;;;53.97;30.27;;;6.20;99.90;;;;;;4102443;29;20210;-91
2021/03/17 02:32:14;;;;;;;49.47;27.60;;;6.10;99.90;;;;;;4086636;29;20260;-91
2021/03/17 02:34:19;;;;;;;47.57;28.50;;;6.10;99.90;;;;;;4102375;29;20697;-91
2021/03/17 02:36:39;;;;;;;49.73;28.00;;;6.10;99.90;;;;;;4102511;29;20187;-91
2021/03/17 02:38:46;;;;;;;46.33;27.10;;;6.10;99.90;;;;;;4086422;29;20203;-90
2021/03/17 02:40:47;;;;;;;45.67;27.13;;;6.00;99.90;;;;;;4102401;29;20187;-90
2021/03/17 02:43:10;;;;;;;51.03;28.63;;;6.10;99.90;;;;;;4086441;29;20223;-91
2021/03/17 02:45:16;;;;;;;50.07;28.23;;;6.20;99.90;;;;;;4108977;28;20198;-91
2021/03/17 02:47:18;;;;;;;47.40;27.80;;;6.20;99.90;;;;;;4102330;29;20220;-91
2021/03/17 02:49:30;;;;;;;51.77;29.67;;;6.30;99.90;;;;;;4086274;29;20175;-92
2021/03/17 02:51:50;;;;;;;50.37;27.30;;;6.30;99.90;;;;;;4102105;29;20261;-89
2021/03/17 02:53:52;;;;;;;49.70;28.50;;;6.40;99.90;;;;;;4102235;29;20698;-92
2021/03/17 02:56:00;;;;;;;50.13;27.77;;;6.40;99.90;;;;;;4118232;28;20174;-92
2021/03/17 02:58:01;;;;;;;47.20;27.37;;;6.30;99.90;;;;;;4102016;29;20187;-90
2021/03/17 03:00:06;;;;;;;46.83;27.30;;;6.40;99.90;;;;;;4086267;29;20257;-91
2021/03/17 03:02:10;;;;;;;46.10;25.73;;;6.40;99.90;;;;;;4086013;29;20208;-91
2021/03/17 03:04:11;;;;;;;48.80;26.77;;;6.40;99.90;;;;;;4086192;29;20274;-92
2021/03/17 03:06:12;;;;;;;48.73;26.17;;;6.40;99.90;;;;;;4118054;28;20571;-90
2021/03/17 03:08:14;;;;;;;46.37;26.97;;;6.50;99.90;;;;;;4086493;29;20183;-91
2021/03/17 03:10:17;;;;;;;50.77;27.13;;;6.60;99.90;;;;;;4086137;29;20282;-91
2021/03/17 03:12:19;;;;;;;46.27;25.40;;;6.70;99.90;;;;;;4085506;29;20255;-92
2021/03/17 03:14:25;;;;;;;47.33;26.67;;;6.60;99.90;;;;;;4101740;29;20175;-90
2021/03/17 03:16:26;;;;;;;47.60;25.93;;;6.60;99.90;;;;;;4101735;29;20185;-91
2021/03/17 03:18:27;;;;;;;45.80;26.30;;;6.60;99.90;;;;;;4101622;29;20182;-93
2021/03/17 03:20:32;;;;;;;46.10;25.70;;;6.60;99.90;;;;;;4085700;29;20191;-92
2021/03/17 03:22:33;;;;;;;46.97;26.00;;;6.60;99.90;;;;;;4085716;29;20222;-90
2021/03/17 03:24:34;;;;;;;47.87;26.07;;;6.90;99.90;;;;;;4085794;29;20230;-92
2021/03/17 03:26:36;;;;;;;46.40;26.93;;;6.60;99.90;;;;;;4085939;29;20215;-92
2021/03/17 03:28:38;;;;;;;47.60;28.13;;;6.60;99.90;;;;;;4085729;29;20637;-92
2021/03/17 03:30:49;;;;;;;47.87;28.07;;;6.80;99.90;;;;;;4085615;29;20191;-92
2021/03/17 03:32:50;;;;;;;43.07;25.43;;;6.80;99.90;;;;;;4085811;29;20181;-92
2021/03/17 03:34:50;;;;;;;43.23;27.40;;;7.00;99.90;;;;;;4085673;29;20372;-90
2021/03/17 03:36:51;;;;;;;45.13;26.77;;;6.80;99.90;;;;;;4101356;29;20261;-91
2021/03/17 03:38:52;;;;;;;43.73;26.57;;;6.70;99.90;;;;;;4085558;29;20171;-92
2021/03/17 03:40:53;;;;;;;42.60;26.37;;;6.70;99.90;;;;;;4085436;29;20219;-90
2021/03/17 03:42:54;;;;;;;40.77;25.33;;;6.60;99.90;;;;;;4101315;29;20271;-90
2021/03/17 03:44:54;;;;;;;37.60;23.73;;;6.60;99.90;;;;;;4085441;29;20218;-93
2021/03/17 03:46:55;;;;;;;34.93;23.00;;;6.60;99.90;;;;;;4085496;29;20175;-92
2021/03/17 03:49:00;;;;;;;29.53;21.23;;;6.60;99.90;;;;;;4101332;29;20246;-92
2021/03/17 03:51:00;;;;;;;30.33;21.60;;;6.80;99.90;;;;;;4085646;29;20282;-92
2021/03/17 03:53:25;;;;;;;32.47;22.10;;;6.90;99.90;;;;;;4085794;29;20195;-92
2021/03/17 03:55:40;;;;;;;29.33;20.60;;;6.80;99.90;;;;;;4085413;29;20632;-92
2021/03/17 03:57:46;;;;;;;31.20;21.20;;;6.60;99.90;;;;;;4101296;29;20233;-93
2021/03/17 03:59:49;;;;;;;28.60;19.50;;;6.70;99.90;;;;;;4101251;29;20726;-90
2021/03/17 04:01:59;;;;;;;29.03;20.10;;;6.50;99.90;;;;;;4101108;29;20191;-92
2021/03/17 04:04:04;;;;;;;27.87;19.97;;;6.50;99.90;;;;;;4101124;29;20236;-92
2021/03/17 04:06:05;;;;;;;27.43;18.97;;;6.50;99.90;;;;;;4101046;29;20186;-90
2021/03/17 04:08:11;;;;;;;26.20;19.17;;;6.50;99.90;;;;;;4085120;29;20304;-90
2021/03/17 04:10:13;;;;;;;27.60;19.80;;;6.40;99.90;;;;;;4100810;29;20209;-91
2021/03/17 04:12:16;;;;;;;27.53;18.87;;;6.50;99.90;;;;;;4110240;28;20585;-90
2021/03/17 04:14:18;;;;;;;28.93;18.77;;;6.40;99.90;;;;;;4100805;29;20222;-90
2021/03/17 04:16:23;;;;;;;25.73;17.53;;;6.30;99.90;;;;;;4101019;29;20205;-93
2021/03/17 04:18:33;;;;;;;24.83;18.03;;;6.10;99.90;;;;;;4100823;29;20250;-93
2021/03/17 04:20:41;;;;;;;24.17;16.43;;;6.20;99.90;;;;;;4100640;29;20205;-92
2021/03/17 04:22:45;;;;;;;25.17;17.93;;;6.00;99.90;;;;;;4100689;29;20224;-91
2021/03/17 04:24:47;;;;;;;24.10;17.60;;;6.00;99.90;;;;;;4100145;28;20198;-90
2021/03/17 04:26:49;;;;;;;25.63;18.67;;;6.10;99.90;;;;;;4100751;29;20175;-92
2021/03/17 04:31:28;;;;;;;28.70;17.70;;;6.00;99.90;;;;;;4100801;29;20221;-92
2021/03/17 04:33:30;;;;;;;25.03;17.17;;;5.90;99.90;;;;;;4084864;29;20164;-93
2021/03/17 04:35:31;;;;;;;25.97;17.40;;;6.00;99.90;;;;;;4084954;29;20183;-93
2021/03/17 04:37:33;;;;;;;27.23;17.03;;;5.90;99.90;;;;;;4069820;29;20240;-93
2021/03/17 04:39:34;;;;;;;24.47;18.00;;;6.00;99.90;;;;;;4068996;29;20207;-92
2021/03/17 04:41:36;;;;;;;17.37;11.60;;;5.80;99.90;;;;;;4085065;29;20171;-92
2021/03/17 04:43:38;;;;;;;26.40;18.23;;;5.70;99.90;;;;;;4068907;29;20603;-93
2021/03/17 04:45:40;;;;;;;25.17;16.80;;;5.70;99.90;;;;;;4085005;29;20180;-93
2021/03/17 04:47:45;;;;;;;27.67;18.63;;;5.50;99.90;;;;;;4070079;29;20176;-93
2021/03/17 04:49:48;;;;;;;26.27;18.43;;;5.50;99.90;;;;;;4084842;29;20686;-92
2021/03/17 04:51:49;;;;;;;29.30;18.57;;;5.50;99.90;;;;;;4100645;29;20270;-94
2021/03/17 04:53:50;;;;;;;28.60;20.77;;;5.60;99.90;;;;;;4084984;29;20212;-93
2021/03/17 04:55:51;;;;;;;28.07;17.37;;;5.80;99.90;;;;;;4084498;29;20179;-93
2021/03/17 04:57:52;;;;;;;28.37;18.87;;;5.80;99.90;;;;;;4068738;29;20172;-94
2021/03/17 04:59:54;;;;;;;28.43;18.20;;;5.80;99.90;;;;;;4085607;29;20207;-94
2021/03/17 05:01:55;;;;;;;25.10;16.70;;;5.80;99.90;;;;;;4069905;29;20180;-93
2021/03/17 05:03:56;;;;;;;24.30;16.83;;;5.80;99.90;;;;;;4084451;29;20267;-93
2021/03/17 05:05:57;;;;;;;27.03;17.47;;;5.70;99.90;;;;;;4070231;29;20184;-92
2021/03/17 05:08:02;;;;;;;27.83;17.17;;;5.80;99.90;;;;;;4085356;29;20178;-93
2021/03/17 05:10:03;;;;;;;27.57;18.10;;;5.80;99.90;;;;;;4069441;29;20248;-93
2021/03/17 05:12:05;;;;;;;27.80;18.10;;;5.90;99.90;;;;;;4068862;29;20180;-93
2021/03/17 05:14:07;;;;;;;31.07;18.67;;;5.90;99.90;;;;;;4072679;29;20649;-93
2021/03/17 05:16:10;;;;;;;27.77;18.67;;;6.00;99.90;;;;;;4084434;29;20520;-93
2021/03/17 05:18:17;;;;;;;29.50;18.57;;;5.90;99.90;;;;;;4068728;29;20173;-93
2021/03/17 05:20:23;;;;;;;30.23;18.63;;;6.00;99.90;;;;;;4070515;29;20216;-94
2021/03/17 05:22:24;;;;;;;33.63;20.23;;;5.90;99.90;;;;;;4068705;29;20284;-93
2021/03/17 05:24:26;;;;;;;27.33;16.83;;;6.00;99.90;;;;;;4084875;29;20176;-93
2021/03/17 05:26:27;;;;;;;34.80;18.03;;;5.90;99.90;;;;;;4068839;29;20633;-93
2021/03/17 05:28:29;;;;;;;31.20;18.37;;;5.80;99.90;;;;;;4068897;29;20181;-93
2021/03/17 05:30:36;;;;;;;32.00;19.53;;;5.80;99.90;;;;;;4068542;29;20256;-93
2021/03/17 05:32:40;;;;;;;36.27;20.33;;;5.90;99.90;;;;;;4084651;29;20624;-93
2021/03/17 05:34:59;;;;;;;33.47;19.80;;;6.00;99.90;;;;;;4084317;29;20171;-93
2021/03/17 05:36:59;;;;;;;38.43;20.40;;;6.10;99.90;;;;;;4103399;29;20171;-93
2021/03/17 05:39:00;;;;;;;34.80;19.43;;;6.20;99.90;;;;;;4087241;29;20184;-92
2021/03/17 05:41:01;;;;;;;34.47;20.73;;;6.10;99.90;;;;;;4071543;29;20200;-93
2021/03/17 05:43:05;;;;;;;33.23;18.77;;;6.10;99.90;;;;;;4104915;29;20289;-94
2021/03/17 05:45:12;;;;;;;34.37;20.17;;;6.10;99.90;;;;;;4087204;29;20175;-92
2021/03/17 05:47:14;;;;;;;33.43;20.07;;;6.10;99.90;;;;;;4087174;29;20171;-94
2021/03/17 05:49:18;;;;;;;32.90;19.23;;;6.30;99.90;;;;;;4071534;29;20176;-93
2021/03/17 05:51:19;;;;;;;34.90;19.23;;;6.20;99.90;;;;;;4087141;29;20179;-93
2021/03/17 05:53:20;;;;;;;30.03;16.50;;;6.20;99.90;;;;;;4071686;29;20217;-92
2021/03/17 05:55:20;;;;;;;37.53;19.23;;;6.30;99.90;;;;;;4087124;29;20175;-93
2021/03/17 05:57:21;;;;;;;31.90;19.00;;;6.20;99.90;;;;;;4087049;29;20537;-93
2021/03/17 05:59:22;;;;;;;31.80;19.30;;;6.30;99.90;;;;;;4072057;29;20188;-93
2021/03/17 06:01:23;;;;;;;32.00;18.47;;;6.50;99.90;;;;;;4086946;29;20180;-92
2021/03/17 06:03:24;;;;;;;32.80;18.87;;;6.40;99.90;;;;;;4073466;29;20227;-92
2021/03/17 06:05:27;;;;;;;31.87;17.73;;;6.60;99.90;;;;;;4071348;29;20172;-93
2021/03/17 06:07:33;;;;;;;20.53;11.57;;;6.60;99.90;;;;;;4071223;29;20164;-93
2021/03/17 06:09:34;;;;;;;29.90;17.80;;;6.50;99.90;;;;;;4102660;29;20199;-93
2021/03/17 06:11:36;;;;;;;33.77;17.03;;;6.40;99.90;;;;;;4086878;29;20176;-93
2021/03/17 06:13:40;;;;;;;31.97;16.10;;;6.50;99.90;;;;;;4086803;29;20167;-93
2021/03/17 06:15:55;;;;;;;34.57;17.27;;;6.60;99.90;;;;;;4102731;29;20190;-93
2021/03/17 06:18:05;;;;;;;28.50;16.03;;;6.50;99.90;;;;;;4087384;29;20259;-93
2021/03/17 06:20:07;;;;;;;30.87;16.30;;;6.40;99.90;;;;;;4087735;29;20290;-93
2021/03/17 06:22:08;;;;;;;26.90;15.73;;;6.40;99.90;;;;;;4102499;29;20175;-94
2021/03/17 06:24:10;;;;;;;29.70;13.73;;;6.50;99.90;;;;;;4103651;29;20183;-94
2021/03/17 06:26:11;;;;;;;28.27;14.57;;;6.40;99.90;;;;;;4086808;29;20624;-93
2021/03/17 06:28:13;;;;;;;25.73;13.50;;;6.50;99.90;;;;;;4071298;29;20180;-93
2021/03/17 06:30:14;;;;;;;28.07;13.67;;;6.70;99.90;;;;;;4086477;29;20709;-93
2021/03/17 06:32:15;;;;;;;30.30;13.00;;;6.50;99.90;;;;;;4071821;29;20254;-93
2021/03/17 06:34:16;;;;;;;22.17;12.53;;;6.70;99.90;;;;;;4072093;29;20208;-92
2021/03/17 06:36:19;;;;;;;22.40;11.27;;;6.80;99.90;;;;;;4072625;29;20245;-94
2021/03/17 06:38:21;;;;;;;27.80;12.03;;;6.80;99.90;;;;;;4102442;29;20175;-92
2021/03/17 06:40:33;;;;;;;27.27;11.47;;;6.80;99.90;;;;;;4086677;29;20263;-94
2021/03/17 06:42:43;;;;;;;23.10;9.90;;;6.80;99.90;;;;;;4102244;29;20202;-93
2021/03/17 06:44:56;;;;;;;24.23;10.47;;;6.80;99.90;;;;;;4086805;29;20176;-92
2021/03/17 06:47:21;;;;;;;32.83;10.17;;;6.80;99.90;;;;;;4085588;29;20168;-93
2021/03/17 06:49:39;;;;;;;22.20;9.67;;;7.00;99.90;;;;;;4102203;29;20233;-93
2021/03/17 06:51:39;;;;;;;19.77;8.70;;;6.70;99.90;;;;;;4102119;29;20186;-93
2021/03/17 06:53:43;;;;;;;21.50;7.77;;;6.60;99.90;;;;;;4071545;29;20596;-94
2021/03/17 06:55:47;;;;;;;16.10;7.30;;;6.60;99.90;;;;;;4070979;29;20225;-93
2021/03/17 06:57:53;;;;;;;19.40;8.30;;;6.70;99.90;;;;;;4087636;29;20710;-94
2021/03/17 06:59:53;;;;;;;23.13;7.30;;;6.70;99.90;;;;;;4086267;29;20551;-93
2021/03/17 07:01:54;;;;;;;16.70;6.50;;;6.90;99.90;;;;;;4086360;29;20230;-94
2021/03/17 07:04:19;;;;;;;22.50;6.40;;;7.00;99.90;;;;;;4072898;29;20649;-93
2021/03/17 07:06:20;;;;;;;17.10;6.03;;;6.80;99.90;;;;;;4086250;29;20177;-93
2021/03/17 07:08:29;;;;;;;16.70;5.50;;;6.80;99.90;;;;;;4086378;29;20176;-93
2021/03/17 07:10:44;;;;;;;16.00;4.50;;;7.00;99.90;;;;;;4072038;29;20200;-92
2021/03/17 07:12:45;;;;;;;16.00;4.70;;;7.00;99.90;;;;;;4085988;29;20179;-93
2021/03/17 07:14:45;;;;;;;18.00;4.00;;;7.20;99.90;;;;;;4085974;29;20212;-95
2021/03/17 07:16:47;;;;;;;18.50;4.30;;;7.40;99.90;;;;;;4071205;29;20196;-94
2021/03/17 07:18:47;;;;;;;15.67;3.80;;;7.60;99.90;;;;;;4071370;29;20656;-94
2021/03/17 07:20:54;;;;;;;12.37;3.00;;;7.70;99.90;;;;;;4086441;29;20203;-93
2021/03/17 07:22:54;;;;;;;13.17;3.50;;;7.70;99.90;;;;;;4071013;29;20212;-94
2021/03/17 07:25:01;;;;;;;16.03;3.23;;;7.80;99.90;;;;;;4086690;29;20172;-93
2021/03/17 07:27:18;;;;;;;11.57;2.27;;;7.80;99.90;;;;;;4070934;29;20212;-94
2021/03/17 07:29:19;;;;;;;10.63;2.67;;;7.90;99.90;;;;;;4085428;29;20179;-94
2021/03/17 07:31:23;;;;;;;30.47;3.37;;;7.80;99.90;;;;;;4070782;29;20263;-93
2021/03/17 07:33:24;;;;;;;13.53;2.80;;;8.00;99.90;;;;;;4103171;29;20183;-94
2021/03/17 07:35:27;;;;;;;21.37;2.60;;;8.20;99.90;;;;;;4086893;28;20270;-94
2021/03/17 07:37:27;;;;;;;10.77;2.50;;;8.20;99.90;;;;;;4069830;29;20168;-93
2021/03/17 07:39:41;;;;;;;14.30;2.63;;;8.20;99.90;;;;;;4086801;29;20230;-92
2021/03/17 07:41:47;;;;;;;21.70;2.67;;;8.20;99.90;;;;;;4085286;29;20176;-93
2021/03/17 07:43:48;;;;;;;18.67;2.77;;;7.90;99.90;;;;;;4085994;29;20207;-93
2021/03/17 07:45:49;;;;;;;16.80;2.90;;;7.90;99.90;;;;;;4085591;29;20162;-93
2021/03/17 07:47:50;;;;;;;14.73;2.50;;;8.00;99.90;;;;;;4086538;29;20167;-93
2021/03/17 07:49:51;;;;;;;10.87;2.60;;;8.20;99.90;;;;;;4069716;29;20200;-93
2021/03/17 07:51:56;;;;;;;18.63;3.13;;;8.10;99.90;;;;;;4087035;29;20264;-93
2021/03/17 07:53:59;;;;;;;20.93;2.80;;;8.20;99.90;;;;;;4086100;29;20629;-94
2021/03/17 07:56:02;;;;;;;18.07;3.50;;;8.30;99.90;;;;;;4101146;28;20635;-93
2021/03/17 07:58:02;;;;;;;24.27;5.80;;;8.20;99.90;;;;;;4085481;29;20183;-93
2021/03/17 08:00:04;;;;;;;19.87;7.20;;;8.10;99.90;;;;;;4104823;23;20313;-94
2021/03/17 08:02:14;;;;;;;24.20;3.67;;;8.00;99.90;;;;;;4103955;28;20179;-93
2021/03/17 08:04:16;;;;;;;18.57;5.07;;;8.20;99.90;;;;;;4085863;29;20243;-93
2021/03/17 08:06:20;;;;;;;20.67;3.20;;;8.00;99.90;;;;;;4085371;29;20175;-93
2021/03/17 08:08:23;;;;;;;22.40;3.47;;;7.90;99.90;;;;;;4086438;29;20282;-93
2021/03/17 08:10:24;;;;;;;11.47;2.10;;;7.80;99.90;;;;;;4085076;29;20258;-94
2021/03/17 08:12:26;;;;;;;14.30;3.00;;;7.50;99.90;;;;;;4100832;29;20198;-93
2021/03/17 08:14:28;;;;;;;15.03;2.47;;;7.40;99.90;;;;;;4085030;29;20639;-93
2021/03/17 08:16:32;;;;;;;19.40;3.23;;;7.50;99.90;;;;;;4085187;29;20186;-94
2021/03/17 08:18:33;;;;;;;27.50;3.73;;;7.30;99.90;;;;;;4084990;29;20666;-94
2021/03/17 08:20:34;;;;;;;24.67;3.60;;;7.40;99.90;;;;;;4102699;28;20203;-93
2021/03/17 08:22:38;;;;;;;23.43;4.27;;;7.50;99.90;;;;;;4085543;29;20219;-92
2021/03/17 08:24:40;;;;;;;21.40;4.20;;;7.60;99.90;;;;;;4084807;29;20172;-92
2021/03/17 08:26:46;;;;;;;28.33;4.33;;;7.70;99.90;;;;;;4100824;29;20211;-93
2021/03/17 08:28:54;;;;;;;30.70;4.60;;;7.80;99.90;;;;;;4085277;29;20219;-93
2021/03/17 08:30:58;;;;;;;29.07;3.90;;;7.90;99.90;;;;;;4102496;29;20297;-94
2021/03/17 08:33:02;;;;;;;30.70;3.70;;;8.00;99.90;;;;;;4101078;29;20171;-93
2021/03/17 08:35:03;;;;;;;24.10;3.67;;;7.80;99.90;;;;;;4111261;23;20249;-93
2021/03/17 08:37:09;;;;;;;27.93;3.57;;;7.90;99.90;;;;;;4100656;29;20171;-92
2021/03/17 08:39:10;;;;;;;21.17;3.57;;;8.10;99.90;;;;;;4101779;29;20209;-93
2021/03/17 08:41:11;;;;;;;27.73;3.10;;;8.10;99.90;;;;;;4117530;28;20162;-93
2021/03/17 08:43:30;;;;;;;26.67;3.90;;;8.10;99.90;;;;;;4103197;29;20206;-94
2021/03/17 08:45:42;;;;;;;27.70;3.50;;;8.10;99.90;;;;;;4100901;29;20179;-94
2021/03/17 08:47:45;;;;;;;21.97;3.30;;;8.20;99.90;;;;;;4100542;29;20170;-94
2021/03/17 08:49:49;;;;;;;12.43;2.50;;;8.00;99.90;;;;;;4100494;29;20243;-94
2021/03/17 08:51:50;;;;;;;21.23;3.13;;;8.00;99.90;;;;;;4101363;29;20175;-93
2021/03/17 08:53:50;;;;;;;21.30;3.30;;;8.00;99.90;;;;;;4102860;28;20179;-93
2021/03/17 08:55:51;;;;;;;25.63;2.93;;;8.00;99.90;;;;;;4100579;29;20539;-93
2021/03/17 08:58:23;;;;;;;20.13;3.43;;;7.90;99.90;;;;;;4123043;28;20197;-94
2021/03/17 09:00:42;;;;;;;17.57;2.80;;;8.10;99.90;;;;;;4101705;29;20203;-94
2021/03/17 09:02:42;;;;;;;14.97;1.87;;;8.10;99.90;;;;;;4103271;28;20218;-93
2021/03/17 09:04:51;;;;;;;12.37;2.10;;;8.00;99.90;;;;;;4116802;23;20252;-94
2021/03/17 09:07:07;;;;;;;12.40;2.07;;;7.90;99.90;;;;;;4117316;28;20233;-93
2021/03/17 09:09:25;;;;;;;12.03;2.20;;;7.70;99.90;;;;;;4132404;28;20180;-94
2021/03/17 09:11:29;;;;;;;11.13;2.20;;;7.70;99.90;;;;;;4103274;28;20185;-93
2021/03/17 09:13:49;;;;;;;9.00;2.67;;;7.50;99.90;;;;;;4103736;29;20643;-95
2021/03/17 09:16:02;;;;;;;13.33;3.13;;;7.50;99.90;;;;;;4103629;29;20183;-93
2021/03/17 09:18:08;;;;;;;9.63;3.27;;;7.50;99.90;;;;;;4105752;29;20269;-94
2021/03/17 09:20:14;;;;;;;10.17;2.80;;;7.20;99.90;;;;;;4103717;28;20568;-93
2021/03/17 09:22:39;;;;;;;12.20;3.67;;;7.30;99.90;;;;;;4119832;28;20201;-93
2021/03/17 09:24:39;;;;;;;10.10;2.67;;;7.30;99.90;;;;;;4103754;29;20167;-94
2021/03/17 09:26:40;;;;;;;10.83;2.50;;;7.40;99.90;;;;;;4120025;28;20515;-94
2021/03/17 09:28:41;;;;;;;6.97;2.03;;;7.50;99.90;;;;;;4103466;29;20182;-94
2021/03/17 09:30:45;;;;;;;10.20;2.63;;;7.70;99.90;;;;;;4119243;28;20198;-94
2021/03/17 09:32:48;;;;;;;10.73;2.47;;;7.60;99.90;;;;;;4106754;29;20159;-92
2021/03/17 09:34:55;;;;;;;9.80;2.00;;;7.70;99.90;;;;;;4104226;29;20178;-94
2021/03/17 09:37:10;;;;;;;4.93;1.57;;;7.80;99.90;;;;;;4103444;29;20175;-93
2021/03/17 09:39:16;;;;;;;12.20;1.80;;;7.70;99.90;;;;;;4104345;29;20175;-93
2021/03/17 09:41:22;;;;;;;5.43;1.90;;;7.80;99.90;;;;;;4121955;28;20248;-93
2021/03/17 09:43:33;;;;;;;5.93;1.90;;;7.90;99.90;;;;;;4103249;29;20214;-93
2021/03/17 09:52:33;;;;;;;4.00;1.53;;;7.50;99.90;;;;;;4758193;23;20383;-93
2021/03/17 09:59:20;;;;;;;6.20;1.63;;;7.50;99.90;;;;;;4102209;29;20537;-93
2021/03/17 10:01:20;;;;;;;4.90;1.90;;;7.70;99.90;;;;;;4103865;29;20178;-93
2021/03/17 10:03:21;;;;;;;9.47;1.87;;;7.80;99.90;;;;;;4072984;29;20223;-94
2021/03/17 10:05:28;;;;;;;7.30;1.40;;;7.80;99.90;;;;;;4071386;29;20172;-92
2021/03/17 10:07:32;;;;;;;12.57;1.70;;;7.80;99.90;;;;;;4090547;28;20235;-92
2021/03/17 10:09:35;;;;;;;6.10;1.57;;;7.80;99.90;;;;;;4088920;29;20175;-93
2021/03/17 10:11:36;;;;;;;5.93;1.70;;;7.70;99.90;;;;;;4087887;29;20279;-92
2021/03/17 10:13:37;;;;;;;3.97;1.37;;;7.90;99.90;;;;;;4071843;29;20173;-92
2021/03/17 10:15:38;;;;;;;7.13;2.00;;;7.90;99.90;;;;;;4072815;29;20268;-92
2021/03/17 10:17:40;;;;;;;3.50;1.60;;;8.10;99.90;;;;;;4087391;29;20178;-92
2021/03/17 10:19:42;;;;;;;7.37;1.90;;;8.20;99.90;;;;;;4071927;29;20235;-92
2021/03/17 10:21:44;;;;;;;4.53;1.50;;;8.40;99.90;;;;;;4071676;29;20212;-92
2021/03/17 10:23:51;;;;;;;2.43;1.20;;;8.30;99.90;;;;;;4087842;29;20211;-92
2021/03/17 10:25:52;;;;;;;4.47;1.50;;;8.10;99.90;;;;;;4071095;29;20179;-92
2021/03/17 10:28:04;;;;;;;4.97;1.50;;;7.90;99.90;;;;;;4071026;29;20195;-93
2021/03/17 10:30:15;;;;;;;4.00;1.20;;;8.00;99.90;;;;;;4088353;29;20763;-92
2021/03/17 10:32:22;;;;;;;3.10;0.83;;;8.10;99.90;;;;;;4071180;29;20202;-93
2021/03/17 10:34:27;;;;;;;2.53;0.87;;;8.00;99.90;;;;;;4088652;29;20175;-92
2021/03/17 10:36:37;;;;;;;2.73;0.70;;;7.50;99.90;;;;;;4117626;23;20241;-90
2021/03/17 10:38:37;;;;;;;4.57;1.13;;;7.60;99.90;;;;;;4118481;28;20186;-92
2021/03/17 10:40:40;;;;;;;2.67;1.10;;;7.80;99.90;;;;;;4122542;28;20682;-92
2021/03/17 10:42:45;;;;;;;5.43;0.90;;;7.80;99.90;;;;;;4102413;29;20721;-91
2021/03/17 10:45:01;;;;;;;2.33;0.70;;;7.80;99.90;;;;;;4102926;29;20159;-91
2021/03/17 10:47:06;;;;;;;4.23;0.60;;;7.70;99.90;;;;;;4102316;29;20183;-93
2021/03/17 10:49:06;;;;;;;3.70;0.77;;;7.70;99.90;;;;;;4102284;29;20175;-92
2021/03/17 10:51:07;;;;;;;5.10;0.83;;;7.90;99.90;;;;;;4102224;28;20201;-91
2021/03/17 10:53:19;;;;;;;5.20;1.10;;;7.90;99.90;;;;;;4102391;29;20226;-92
2021/03/17 10:55:26;;;;;;;4.07;0.80;;;7.70;99.90;;;;;;4102302;29;20182;-91
2021/03/17 10:57:26;;;;;;;6.93;1.40;;;7.50;99.90;;;;;;4102789;29;20176;-91
2021/03/17 10:59:32;;;;;;;3.40;1.10;;;7.50;99.90;;;;;;4118714;28;20178;-91
2021/03/17 11:01:33;;;;;;;7.87;1.83;;;7.40;99.90;;;;;;4102046;29;20177;-91
2021/03/17 11:03:38;;;;;;;5.10;1.80;;;7.50;99.90;;;;;;4102391;29;20235;-93
2021/03/17 11:05:38;;;;;;;6.03;1.80;;;7.50;99.90;;;;;;4101902;28;20186;-92